createdAt,value
2019-01-12T00:00:52.479Z,2.30
2019-01-12T00:03:21.909Z,2.00
2019-01-12T00:05:51.343Z,0.93
2019-01-12T00:08:21.107Z,5.90
2019-01-12T00:10:50.496Z,3.67
2019-01-12T00:13:19.905Z,0.57
2019-01-12T00:15:49.298Z,1.63
2019-01-12T00:18:21.923Z,1.17
2019-01-12T00:20:53.656Z,1.27
2019-01-12T00:23:23.068Z,2.63
2019-01-12T00:25:52.475Z,4.67
2019-01-12T00:28:21.928Z,3.33
2019-01-12T00:30:51.314Z,2.17
2019-01-12T00:33:20.778Z,2.30
2019-01-12T00:35:50.234Z,4.53
2019-01-12T00:38:19.704Z,2.73
2019-01-12T00:40:50.312Z,1.60
2019-01-12T00:43:19.788Z,2.60
2019-01-12T00:45:51.457Z,3.23
2019-01-12T00:48:21.008Z,1.77
2019-01-12T00:50:50.504Z,1.00
2019-01-12T00:53:19.908Z,2.37
2019-01-12T00:55:49.312Z,2.83
2019-01-12T00:58:18.785Z,0.43
2019-01-12T01:00:48.272Z,1.20
2019-01-12T01:03:17.648Z,1.23
2019-01-12T01:05:47.031Z,3.30
2019-01-12T01:08:16.434Z,1.37
2019-01-12T01:10:45.940Z,2.13
2019-01-12T01:13:15.446Z,1.67
2019-01-12T01:15:47.828Z,4.23
2019-01-12T01:18:19.086Z,1.93
2019-01-12T01:20:48.476Z,0.93
2019-01-12T01:23:17.972Z,3.10
2019-01-12T01:25:47.332Z,1.53
2019-01-12T01:28:16.696Z,1.20
2019-01-12T01:30:46.084Z,1.67
2019-01-12T01:33:15.535Z,1.97
2019-01-12T01:35:44.913Z,1.43
2019-01-12T01:38:14.348Z,1.27
2019-01-12T01:40:43.804Z,0.97
2019-01-12T01:43:13.193Z,2.40
2019-01-12T01:45:42.690Z,3.83
2019-01-12T01:48:12.117Z,1.03
2019-01-12T01:50:41.632Z,1.23
2019-01-12T01:53:11.093Z,1.73
2019-01-12T01:55:40.612Z,2.40
2019-01-12T01:58:10.004Z,3.07
2019-01-12T02:00:40.222Z,2.83
2019-01-12T02:03:09.764Z,2.03
2019-01-12T02:05:39.169Z,1.73
2019-01-12T02:08:08.652Z,1.73
2019-01-12T02:10:38.125Z,2.90
2019-01-12T02:13:07.572Z,0.90
2019-01-12T02:15:38.746Z,4.73
2019-01-12T02:18:08.132Z,1.00
2019-01-12T02:20:37.537Z,1.77
2019-01-12T02:23:06.924Z,2.27
2019-01-12T02:25:38.050Z,3.43
2019-01-12T02:28:08.562Z,2.33
2019-01-12T02:30:38.129Z,1.73
2019-01-12T02:33:08.807Z,1.13
2019-01-12T02:35:39.868Z,1.83
2019-01-12T02:38:09.272Z,1.37
2019-01-12T02:40:40.228Z,3.90
2019-01-12T02:43:09.631Z,2.23
2019-01-12T02:45:39.093Z,1.47
2019-01-12T02:48:08.522Z,3.37
2019-01-12T02:50:37.965Z,1.90
2019-01-12T02:53:07.375Z,0.80
2019-01-12T02:55:37.026Z,2.53
2019-01-12T02:58:06.953Z,2.33
2019-01-12T03:00:36.329Z,1.90
2019-01-12T03:03:05.785Z,1.67
2019-01-12T03:05:35.172Z,2.37
2019-01-12T03:08:04.565Z,1.63
2019-01-12T03:10:33.951Z,1.03
2019-01-12T03:13:03.432Z,2.57
2019-01-12T03:15:32.836Z,1.00
2019-01-12T03:18:02.246Z,0.90
2019-01-12T03:20:31.750Z,2.63
2019-01-12T03:23:01.526Z,1.63
2019-01-12T03:25:33.333Z,2.03
2019-01-12T03:28:21.828Z,3.93
2019-01-12T03:30:52.915Z,4.20
2019-01-12T03:33:22.337Z,3.47
2019-01-12T03:35:52.295Z,1.00
2019-01-12T03:38:21.735Z,2.63
2019-01-12T03:40:54.036Z,2.00
2019-01-12T03:43:23.442Z,4.03
2019-01-12T03:45:52.863Z,2.30
2019-01-12T03:48:22.214Z,1.70
2019-01-12T03:50:51.783Z,1.80
2019-01-12T03:53:21.207Z,1.30
2019-01-12T03:55:50.712Z,2.27
2019-01-12T03:58:20.347Z,3.57
2019-01-12T04:00:49.703Z,1.00
2019-01-12T04:03:20.168Z,2.30
2019-01-12T04:05:49.535Z,1.33
2019-01-12T04:08:21.203Z,3.80
2019-01-12T04:10:52.325Z,0.93
2019-01-12T04:13:21.684Z,2.77
2019-01-12T04:15:51.140Z,3.80
2019-01-12T04:18:20.580Z,1.13
2019-01-12T04:20:49.942Z,1.33
2019-01-12T04:23:19.389Z,2.00
2019-01-12T04:25:55.309Z,4.10
2019-01-12T04:28:24.786Z,2.13
2019-01-12T04:30:54.240Z,0.83
2019-01-12T04:33:25.194Z,1.20
2019-01-12T04:35:54.596Z,1.73
2019-01-12T04:38:24.044Z,3.13
2019-01-12T04:40:53.476Z,1.17
2019-01-12T04:43:22.828Z,2.00
2019-01-12T04:45:54.265Z,2.70
2019-01-12T04:48:25.196Z,2.47
2019-01-12T04:50:56.929Z,1.20
2019-01-12T04:53:26.399Z,2.23
2019-01-12T04:55:55.788Z,2.70
2019-01-12T04:58:25.147Z,2.73
2019-01-12T05:00:55.306Z,0.50
2019-01-12T05:03:24.741Z,1.13
2019-01-12T05:05:54.109Z,3.27
2019-01-12T05:08:25.330Z,3.47
2019-01-12T05:10:54.791Z,1.27
2019-01-12T05:13:24.155Z,2.50
2019-01-12T05:15:53.519Z,0.77
2019-01-12T05:18:22.872Z,0.90
2019-01-12T05:20:53.022Z,1.77
2019-01-12T05:23:23.497Z,2.03
2019-01-12T05:25:52.947Z,1.50
2019-01-12T05:28:22.323Z,1.07
2019-01-12T05:30:51.679Z,4.07
2019-01-12T05:33:21.042Z,2.23
2019-01-12T05:35:50.496Z,2.20
2019-01-12T05:38:19.844Z,1.63
2019-01-12T05:40:50.240Z,1.97
2019-01-12T05:43:19.659Z,2.00
2019-01-12T05:45:49.019Z,1.63
2019-01-12T05:48:18.475Z,1.80
2019-01-12T05:50:47.863Z,1.87
2019-01-12T05:53:17.247Z,1.53
2019-01-12T05:55:46.612Z,2.53
2019-01-12T05:58:16.063Z,2.80
2019-01-12T06:00:45.494Z,5.67
2019-01-12T06:03:14.851Z,2.63
2019-01-12T06:05:44.247Z,1.57
2019-01-12T06:08:13.704Z,0.97
2019-01-12T06:10:43.160Z,2.47
2019-01-12T06:13:12.605Z,3.27
2019-01-12T06:15:42.035Z,3.33
2019-01-12T06:18:11.398Z,1.77
2019-01-12T06:20:40.839Z,3.90
2019-01-12T06:23:10.219Z,2.03
2019-01-12T06:25:39.620Z,3.90
2019-01-12T06:28:10.096Z,1.77
2019-01-12T06:30:40.204Z,1.57
2019-01-12T06:33:09.572Z,1.37
2019-01-12T06:35:38.924Z,4.63
2019-01-12T06:38:09.916Z,2.90
2019-01-12T06:40:39.296Z,1.07
2019-01-12T06:43:08.746Z,1.73
2019-01-12T06:45:38.163Z,1.47
2019-01-12T06:48:07.575Z,3.77
2019-01-12T06:50:36.979Z,4.07
2019-01-12T06:53:06.331Z,4.23
2019-01-12T06:55:35.725Z,3.50
2019-01-12T06:58:05.099Z,1.73
2019-01-12T07:00:34.487Z,2.53
2019-01-12T07:03:03.927Z,2.00
2019-01-12T07:05:33.295Z,2.87
2019-01-12T07:08:02.656Z,1.20
2019-01-12T07:10:32.037Z,1.67
2019-01-12T07:13:01.474Z,2.70
2019-01-12T07:15:31.020Z,2.87
2019-01-12T07:18:08.838Z,6.13
2019-01-12T07:20:38.503Z,2.00
2019-01-12T07:23:07.865Z,3.90
2019-01-12T07:25:39.265Z,1.73
2019-01-12T07:28:08.389Z,1.60
2019-01-12T07:30:37.769Z,3.37
2019-01-12T07:33:07.136Z,1.60
2019-01-12T07:35:36.495Z,2.87
2019-01-12T07:38:10.720Z,2.70
2019-01-12T07:40:40.208Z,5.50
2019-01-12T07:43:09.567Z,1.83
2019-01-12T07:45:39.023Z,3.87
2019-01-12T07:48:14.451Z,2.60
2019-01-12T07:50:43.803Z,3.27
2019-01-12T07:53:13.183Z,2.97
2019-01-12T07:55:43.953Z,3.23
2019-01-12T07:58:13.335Z,3.83
2019-01-12T08:00:42.707Z,3.17
2019-01-12T08:03:14.232Z,2.53
2019-01-12T08:05:46.867Z,3.47
2019-01-12T08:08:16.297Z,1.97
2019-01-12T08:10:45.716Z,2.87
2019-01-12T08:13:15.085Z,4.10
2019-01-12T08:15:44.559Z,4.03
2019-01-12T08:18:13.944Z,2.93
2019-01-12T08:20:46.736Z,2.23
2019-01-12T08:23:16.123Z,2.90
2019-01-12T08:25:45.563Z,4.77
2019-01-12T08:28:18.737Z,2.57
2019-01-12T08:30:48.176Z,4.73
2019-01-12T08:33:20.576Z,5.27
2019-01-12T08:35:49.988Z,2.93
2019-01-12T08:38:19.356Z,4.47
2019-01-12T08:40:49.214Z,4.70
2019-01-12T08:43:18.640Z,4.77
2019-01-12T08:45:48.072Z,2.17
2019-01-12T08:48:17.507Z,3.40
2019-01-12T08:50:47.002Z,3.53
2019-01-12T08:53:16.419Z,1.60
2019-01-12T08:55:45.775Z,5.23
2019-01-12T08:58:15.151Z,2.70
2019-01-12T09:00:44.511Z,3.00
2019-01-12T09:03:13.861Z,2.03
2019-01-12T09:05:43.227Z,1.73
2019-01-12T09:08:12.711Z,1.83
2019-01-12T09:10:42.932Z,3.10
2019-01-12T09:13:12.352Z,3.10
2019-01-12T09:15:41.769Z,1.87
2019-01-12T09:18:13.993Z,4.77
2019-01-12T09:20:43.417Z,3.00
2019-01-12T09:23:14.588Z,1.37
2019-01-12T09:25:44.004Z,2.80
2019-01-12T09:28:13.546Z,1.73
2019-01-12T09:30:48.454Z,1.83
2019-01-12T09:33:14.125Z,1.47
2019-01-12T09:35:43.676Z,3.03
2019-01-12T09:38:15.647Z,1.83
2019-01-12T09:40:48.029Z,1.10
2019-01-12T09:43:18.682Z,3.37
2019-01-12T09:48:40.402Z,3.30
2019-01-12T09:51:10.230Z,3.40
2019-01-12T09:53:39.664Z,4.07
2019-01-12T09:56:09.071Z,2.30
2019-01-12T09:58:38.517Z,1.50
2019-01-12T10:01:07.881Z,1.83
2019-01-12T10:03:37.426Z,0.97
2019-01-12T10:06:06.853Z,5.77
2019-01-12T10:08:36.329Z,3.57
2019-01-12T10:11:06.284Z,2.00
2019-01-12T10:13:35.795Z,2.53
2019-01-12T10:16:05.435Z,4.13
2019-01-12T10:18:34.992Z,1.40
2019-01-12T10:21:23.454Z,1.40
2019-01-12T10:23:55.229Z,1.67
2019-01-12T10:26:26.628Z,2.60
2019-01-12T10:28:56.159Z,4.33
2019-01-12T10:31:27.705Z,1.90
2019-01-12T10:33:57.258Z,3.07
2019-01-12T10:36:27.579Z,3.93
2019-01-12T10:39:00.033Z,2.00
2019-01-12T10:41:29.470Z,2.40
2019-01-12T10:43:59.381Z,0.87
2019-01-12T10:46:30.959Z,2.13
2019-01-12T10:49:02.400Z,1.70
2019-01-12T10:51:32.212Z,2.27
2019-01-12T10:54:01.601Z,1.90
2019-01-12T10:56:31.168Z,1.70
2019-01-12T10:59:00.692Z,2.53
2019-01-12T11:01:31.691Z,2.57
2019-01-12T11:04:03.184Z,2.20
2019-01-12T11:06:32.610Z,2.37
2019-01-12T11:09:06.179Z,0.40
2019-01-12T11:11:36.042Z,1.93
2019-01-12T11:14:05.506Z,1.40
2019-01-12T11:16:36.166Z,3.13
2019-01-12T11:19:05.863Z,3.10
2019-01-12T11:21:35.412Z,3.80
2019-01-12T11:24:07.992Z,2.30
2019-01-12T11:26:38.471Z,1.33
2019-01-12T11:29:09.988Z,1.20
2019-01-12T11:31:39.416Z,1.93
2019-01-12T11:34:08.941Z,4.30
2019-01-12T11:36:41.208Z,1.77
2019-01-12T11:39:10.740Z,1.57
2019-01-12T11:41:43.065Z,2.43
2019-01-12T11:44:22.477Z,2.87
2019-01-12T11:46:53.065Z,2.83
2019-01-12T11:49:22.522Z,1.73
2019-01-12T11:51:51.969Z,2.00
2019-01-12T11:54:21.433Z,3.27
2019-01-12T11:56:53.394Z,1.27
2019-01-12T11:59:23.048Z,1.83
2019-01-12T12:01:52.577Z,2.70
2019-01-12T12:04:21.997Z,2.77
2019-01-12T12:06:54.060Z,2.17
2019-01-12T12:09:23.627Z,1.03
2019-01-12T12:11:53.215Z,0.97
2019-01-12T12:14:22.814Z,1.67
2019-01-12T12:16:52.464Z,0.80
2019-01-12T12:19:24.805Z,1.20
2019-01-12T12:21:54.252Z,1.57
2019-01-12T12:24:23.717Z,2.83
2019-01-12T12:26:53.412Z,2.23
2019-01-12T12:29:22.873Z,2.90
2019-01-12T12:31:52.455Z,0.90
2019-01-12T12:34:22.056Z,2.77
2019-01-12T12:36:51.617Z,2.23
2019-01-12T12:39:21.040Z,2.80
2019-01-12T12:41:50.448Z,1.47
2019-01-12T12:44:19.872Z,3.83
2019-01-12T12:46:49.393Z,3.17
2019-01-12T12:49:21.888Z,2.47
2019-01-12T12:51:51.482Z,3.80
2019-01-12T12:54:23.844Z,3.30
2019-01-12T12:56:53.366Z,4.87
2019-01-12T12:59:22.819Z,3.40
2019-01-12T13:01:52.240Z,2.80
2019-01-12T13:04:21.704Z,1.80
2019-01-12T13:06:51.309Z,3.03
2019-01-12T13:09:20.890Z,5.77
2019-01-12T13:11:51.449Z,2.53
2019-01-12T13:14:20.955Z,2.17
2019-01-12T13:16:50.448Z,4.10
2019-01-12T13:19:20.066Z,3.83
2019-01-12T13:21:49.633Z,2.53
2019-01-12T13:24:19.488Z,3.20
2019-01-12T13:26:51.372Z,4.43
2019-01-12T13:29:23.152Z,3.47
2019-01-12T13:31:52.679Z,2.73
2019-01-12T13:34:22.120Z,3.97
2019-01-12T13:36:51.535Z,3.53
2019-01-12T13:39:21.205Z,3.00
2019-01-12T13:41:50.731Z,5.53
2019-01-12T13:44:22.519Z,5.10
2019-01-12T13:46:54.681Z,2.73
2019-01-12T13:49:24.160Z,3.33
2019-01-12T13:51:53.571Z,4.87
2019-01-12T13:54:23.132Z,4.53
2019-01-12T13:56:52.563Z,4.63
2019-01-12T13:59:22.062Z,4.80
2019-01-12T14:01:51.534Z,5.23
2019-01-12T14:04:23.901Z,6.90
2019-01-12T14:06:53.396Z,6.73
2019-01-12T14:09:22.900Z,3.70
2019-01-12T14:11:52.456Z,6.80
2019-01-12T14:14:22.057Z,7.57
2019-01-12T14:16:52.107Z,7.63
2019-01-12T14:19:23.974Z,5.73
2019-01-12T14:22:14.996Z,6.80
2019-01-12T14:24:44.360Z,4.73
2019-01-12T14:27:13.785Z,5.03
2019-01-12T14:29:43.184Z,5.97
2019-01-12T14:32:12.574Z,7.53
2019-01-12T14:34:42.120Z,7.97
2019-01-12T14:37:11.579Z,7.57
2019-01-12T14:39:41.148Z,6.87
2019-01-12T14:42:10.676Z,7.00
2019-01-12T14:44:40.228Z,5.57
2019-01-12T14:47:09.644Z,5.80
2019-01-12T14:49:39.100Z,5.33
2019-01-12T14:52:11.436Z,5.17
2019-01-12T14:54:40.858Z,5.20
2019-01-12T14:57:10.361Z,5.90
2019-01-12T14:59:42.850Z,5.93
2019-01-12T15:02:12.600Z,5.70
2019-01-12T15:04:45.152Z,5.60
2019-01-12T15:07:14.609Z,6.70
2019-01-12T15:09:44.093Z,4.10
2019-01-12T15:12:13.512Z,3.90
2019-01-12T15:14:42.936Z,5.80
2019-01-12T15:17:13.944Z,4.63
2019-01-12T15:19:43.346Z,7.87
2019-01-12T15:22:12.800Z,3.70
2019-01-12T15:24:44.047Z,6.73
2019-01-12T15:27:13.515Z,5.67
2019-01-12T15:29:42.943Z,4.37
2019-01-12T15:32:12.427Z,3.33
2019-01-12T15:34:41.865Z,3.57
2019-01-12T15:37:11.267Z,3.93
2019-01-12T15:39:40.747Z,5.77
2019-01-12T15:42:10.299Z,3.70
2019-01-12T15:44:39.848Z,4.80
2019-01-12T15:47:09.291Z,3.07
2019-01-12T15:49:38.787Z,3.83
2019-01-12T15:52:08.241Z,2.47
2019-01-12T15:54:37.712Z,4.73
2019-01-12T15:57:07.141Z,4.87
2019-01-12T15:59:36.642Z,3.67
2019-01-12T16:02:06.220Z,4.17
2019-01-12T16:04:35.742Z,6.53
2019-01-12T16:07:05.420Z,5.53
2019-01-12T16:09:34.916Z,4.03
2019-01-12T16:12:04.462Z,7.23
2019-01-12T16:14:33.947Z,5.93
2019-01-12T16:17:04.499Z,6.07
2019-01-12T16:19:33.936Z,5.63
2019-01-12T16:22:03.504Z,5.90
2019-01-12T16:24:33.026Z,5.50
2019-01-12T16:27:02.480Z,5.30
2019-01-12T16:29:32.104Z,5.70
2019-01-12T16:32:01.702Z,7.87
2019-01-12T16:34:31.162Z,5.63
2019-01-12T16:37:00.729Z,6.47
2019-01-12T16:39:30.301Z,5.43
2019-01-12T16:41:59.969Z,7.40
2019-01-12T16:44:29.496Z,6.60
2019-01-12T16:46:58.991Z,5.97
2019-01-12T16:49:28.448Z,8.03
2019-01-12T16:51:57.958Z,7.23
2019-01-12T16:54:30.460Z,6.97
2019-01-12T16:57:02.021Z,5.87
2019-01-12T16:59:31.537Z,5.97
2019-01-12T17:02:01.100Z,6.60
2019-01-12T17:04:30.557Z,6.93
2019-01-12T17:07:00.076Z,6.77
2019-01-12T17:09:29.581Z,6.07
2019-01-12T17:11:59.082Z,7.40
2019-01-12T17:14:29.892Z,5.03
2019-01-12T17:16:59.450Z,6.27
2019-01-12T17:19:32.313Z,7.40
2019-01-12T17:22:03.115Z,6.90
2019-01-12T17:24:32.673Z,8.63
2019-01-12T17:27:02.194Z,7.83
2019-01-12T17:29:31.764Z,9.03
2019-01-12T17:32:01.267Z,8.27
2019-01-12T17:34:33.033Z,9.63
2019-01-12T17:37:02.504Z,7.87
2019-01-12T17:39:31.947Z,7.43
2019-01-12T17:42:01.510Z,9.43
2019-01-12T17:44:30.968Z,7.37
2019-01-12T17:47:00.572Z,9.17
2019-01-12T17:49:32.283Z,12.23
2019-01-12T17:52:01.890Z,6.57
2019-01-12T17:54:31.420Z,8.50
2019-01-12T17:57:00.952Z,6.80
2019-01-12T17:59:30.449Z,9.50
2019-01-12T18:01:59.939Z,7.53
2019-01-12T18:04:29.401Z,6.37
2019-01-12T18:06:58.925Z,8.67
2019-01-12T18:09:28.394Z,7.30
2019-01-12T18:11:57.954Z,7.57
2019-01-12T18:14:27.443Z,8.57
2019-01-12T18:16:56.967Z,8.30
2019-01-12T18:19:26.502Z,7.53
2019-01-12T18:21:56.030Z,8.03
2019-01-12T18:24:25.569Z,6.50
2019-01-12T18:26:55.052Z,6.93
2019-01-12T18:29:24.496Z,9.97
2019-01-12T18:31:54.035Z,8.60
2019-01-12T18:34:23.548Z,7.93
2019-01-12T18:36:52.960Z,6.57
2019-01-12T18:39:22.473Z,7.57
2019-01-12T18:41:51.888Z,9.83
2019-01-12T18:44:27.174Z,9.20
2019-01-12T18:46:57.824Z,5.93
2019-01-12T18:49:28.901Z,8.40
2019-01-12T18:52:01.481Z,10.03
2019-01-12T18:54:31.032Z,9.63
2019-01-12T18:57:02.544Z,6.70
2019-01-12T18:59:32.035Z,6.80
2019-01-12T19:02:04.437Z,7.33
2019-01-12T19:04:33.980Z,7.57
2019-01-12T19:07:03.471Z,9.57
2019-01-12T19:09:38.460Z,9.20
2019-01-12T19:12:07.973Z,9.70
2019-01-12T19:14:37.437Z,9.80
2019-01-12T19:17:07.169Z,9.03
2019-01-12T19:19:36.797Z,10.80
2019-01-12T19:22:09.045Z,8.43
2019-01-12T19:24:38.555Z,9.27
2019-01-12T19:27:08.078Z,11.90
2019-01-12T19:29:37.580Z,8.90
2019-01-12T19:32:07.208Z,8.80
2019-01-12T19:34:36.844Z,8.63
2019-01-12T19:37:08.663Z,9.57
2019-01-12T19:39:39.938Z,9.93
2019-01-12T19:42:09.522Z,10.07
2019-01-12T19:44:39.137Z,8.47
2019-01-12T19:47:08.620Z,9.27
2019-01-12T19:49:38.050Z,10.00
2019-01-12T19:52:10.116Z,12.63
2019-01-12T19:54:41.425Z,9.77
2019-01-12T19:57:11.012Z,8.83
2019-01-12T19:59:40.789Z,10.50
2019-01-12T20:02:10.321Z,8.70
2019-01-12T20:04:40.092Z,8.77
2019-01-12T20:07:09.560Z,8.80
2019-01-12T20:09:39.059Z,11.30
2019-01-12T20:12:08.550Z,10.13
2019-01-12T20:14:38.068Z,9.37
2019-01-12T20:17:07.609Z,10.77
2019-01-12T20:19:37.123Z,11.90
2019-01-12T20:22:06.673Z,11.00
2019-01-12T20:24:36.116Z,9.30
2019-01-12T20:27:07.841Z,11.00
2019-01-12T20:29:37.551Z,12.80
2019-01-12T20:32:25.839Z,11.00
2019-01-12T20:35:22.479Z,13.83
2019-01-12T20:38:29.140Z,10.63
2019-01-12T20:41:21.732Z,12.60
2019-01-12T20:44:18.070Z,14.33
2019-01-12T20:47:19.472Z,13.07
2019-01-12T20:50:25.796Z,10.80
2019-01-12T20:53:57.608Z,11.07
2019-01-12T20:57:09.942Z,9.63
2019-01-12T21:00:34.673Z,11.37
2019-01-12T21:03:17.925Z,11.03
2019-01-12T21:06:11.560Z,13.37
2019-01-12T21:09:19.137Z,9.17
2019-01-12T21:12:25.195Z,10.10
2019-01-12T21:15:27.486Z,9.90
2019-01-12T21:17:56.994Z,11.10
2019-01-12T21:20:26.484Z,10.60
2019-01-12T21:22:58.348Z,12.23
2019-01-12T21:25:27.744Z,9.03
2019-01-12T21:27:57.247Z,9.90
2019-01-12T21:30:26.628Z,9.53
2019-01-12T21:32:56.014Z,9.47
2019-01-12T21:35:25.456Z,9.83
2019-01-12T21:37:54.860Z,10.83
2019-01-12T21:40:24.241Z,9.57
2019-01-12T21:42:53.648Z,10.70
2019-01-12T21:45:23.039Z,14.20
2019-01-12T21:47:52.412Z,13.23
2019-01-12T21:50:21.820Z,12.77
2019-01-12T21:52:51.267Z,10.83
2019-01-12T21:55:22.112Z,13.87
2019-01-12T21:57:51.520Z,13.43
2019-01-12T22:00:20.940Z,12.33
2019-01-12T22:02:50.344Z,13.17
2019-01-12T22:05:19.723Z,11.77
2019-01-12T22:07:49.139Z,10.83
2019-01-12T22:10:19.165Z,12.00
2019-01-12T22:12:49.003Z,11.80
2019-01-12T22:15:18.401Z,10.90
2019-01-12T22:17:47.808Z,11.00
2019-01-12T22:20:17.408Z,9.57
2019-01-12T22:22:46.797Z,11.83
2019-01-12T22:25:16.183Z,12.60
2019-01-12T22:27:46.475Z,10.80
2019-01-12T22:30:17.112Z,11.73
2019-01-12T22:32:46.564Z,12.47
2019-01-12T22:35:15.940Z,8.77
2019-01-12T22:37:45.675Z,14.33
2019-01-12T22:40:17.475Z,10.30
2019-01-12T22:42:46.868Z,15.07
2019-01-12T22:45:16.243Z,11.23
2019-01-12T22:47:45.628Z,9.27
2019-01-12T22:50:18.531Z,8.40
2019-01-12T22:52:49.112Z,9.07
2019-01-12T22:55:18.615Z,9.87
2019-01-12T22:57:49.170Z,9.53
2019-01-12T23:00:48.779Z,11.13
2019-01-12T23:03:19.035Z,8.30
2019-01-12T23:05:48.387Z,8.27
2019-01-12T23:08:17.759Z,10.77
2019-01-12T23:10:47.166Z,7.60
2019-01-12T23:13:16.536Z,10.43
2019-01-12T23:15:45.921Z,8.40
2019-01-12T23:18:15.292Z,8.27
2019-01-12T23:20:46.444Z,8.20
2019-01-12T23:23:15.830Z,5.13
2019-01-12T23:25:45.276Z,6.87
2019-01-12T23:28:14.651Z,7.13
2019-01-12T23:30:45.019Z,5.57
2019-01-12T23:33:14.371Z,7.17
2019-01-12T23:35:43.780Z,8.77
2019-01-12T23:38:13.243Z,6.83
2019-01-12T23:40:43.607Z,5.17
2019-01-12T23:43:13.035Z,5.20
2019-01-12T23:45:42.464Z,6.33
2019-01-12T23:48:11.909Z,6.70
2019-01-12T23:50:41.345Z,6.50
2019-01-12T23:53:10.710Z,5.07
2019-01-12T23:55:40.098Z,3.17
2019-01-12T23:58:09.469Z,4.67
